createdAt,value
2022-08-02T00:00:35.866Z,100724.59
2022-08-02T00:03:04.178Z,100720.69
2022-08-02T00:05:32.124Z,100726.72
2022-08-02T00:08:00.099Z,100729.56
2022-08-02T00:10:30.532Z,100721.78
2022-08-02T00:12:59.082Z,100722.97
2022-08-02T00:15:27.023Z,100720.03
2022-08-02T00:17:55.390Z,100720.38
2022-08-02T00:20:23.383Z,100728.63
2022-08-02T00:22:51.307Z,100724.38
2022-08-02T00:25:19.631Z,100725.72
2022-08-02T00:27:48.954Z,100724.34
2022-08-02T00:30:16.950Z,100726.66
2022-08-02T00:32:45.253Z,100729.84
2022-08-02T00:35:13.247Z,100737.41
2022-08-02T00:37:42.150Z,100736.38
2022-08-02T00:40:12.206Z,100744.75
2022-08-02T00:42:40.734Z,100735.97
2022-08-02T00:45:10.865Z,100735.28
2022-08-02T00:47:39.258Z,100735.75
2022-08-02T00:50:07.738Z,100742.63
2022-08-02T00:52:35.709Z,100745.78
2022-08-02T00:55:04.066Z,100741.00
2022-08-02T00:57:31.985Z,100745.84
2022-08-02T00:59:59.958Z,100752.72
2022-08-02T01:02:29.668Z,100745.63
2022-08-02T01:04:57.670Z,100749.50
2022-08-02T01:07:25.710Z,100746.22
2022-08-02T01:09:54.000Z,100743.16
2022-08-02T01:12:22.071Z,100750.84
2022-08-02T01:14:56.600Z,100746.09
2022-08-02T01:17:35.515Z,100744.16
2022-08-02T01:20:13.209Z,100748.69
2022-08-02T01:23:02.152Z,100749.16
2022-08-02T01:25:51.394Z,100749.56
2022-08-02T01:28:30.895Z,100753.16
2022-08-02T01:31:03.651Z,100753.66
2022-08-02T01:33:37.487Z,100753.66
2022-08-02T01:36:08.813Z,100755.50
2022-08-02T01:38:40.978Z,100750.84
2022-08-02T01:41:14.784Z,100749.59
2022-08-02T01:43:46.643Z,100750.59
2022-08-02T01:46:17.598Z,100745.66
2022-08-02T01:48:47.290Z,100742.97
2022-08-02T01:51:18.440Z,100745.09
2022-08-02T01:53:50.996Z,100752.66
2022-08-02T01:56:21.045Z,100751.97
2022-08-02T01:58:50.989Z,100745.00
2022-08-02T02:01:21.876Z,100744.47
2022-08-02T02:03:50.502Z,100742.75
2022-08-02T02:06:20.108Z,100745.63
2022-08-02T02:08:50.970Z,100751.16
2022-08-02T02:12:06.215Z,100752.28
2022-08-02T02:14:09.144Z,100749.03
2022-08-02T02:16:38.530Z,100749.34
2022-08-02T02:19:08.552Z,100748.63
2022-08-02T02:21:36.841Z,100740.84
2022-08-02T02:24:09.085Z,100751.22
2022-08-02T02:26:42.952Z,100754.34
2022-08-02T02:29:26.356Z,100757.34
2022-08-02T02:31:56.046Z,100754.09
2022-08-02T02:34:28.994Z,100755.37
2022-08-02T02:37:00.384Z,100759.37
2022-08-02T02:39:30.005Z,100759.09
2022-08-02T02:42:03.150Z,100755.69
2022-08-02T02:44:34.323Z,100755.13
2022-08-02T02:47:03.520Z,100758.09
2022-08-02T02:49:33.976Z,100753.69
2022-08-02T02:52:03.260Z,100757.09
2022-08-02T02:54:35.435Z,100764.19
2022-08-02T02:57:06.508Z,100764.19
2022-08-02T02:59:48.993Z,100772.41
2022-08-02T03:02:18.833Z,100776.25
2022-08-02T03:04:57.061Z,100775.69
2022-08-02T03:07:27.286Z,100767.88
2022-08-02T03:09:55.949Z,100771.31
2022-08-02T03:12:31.487Z,100782.94
2022-08-02T03:15:04.081Z,100775.84
2022-08-02T03:17:39.640Z,100784.47
2022-08-02T03:20:11.008Z,100780.50
2022-08-02T03:22:39.134Z,100789.72
2022-08-02T03:25:08.865Z,100790.56
2022-08-02T03:27:36.827Z,100788.56
2022-08-02T03:30:08.831Z,100790.84
2022-08-02T03:32:38.642Z,100795.25
2022-08-02T03:35:08.948Z,100789.00
2022-08-02T03:37:38.459Z,100789.72
2022-08-02T03:40:09.310Z,100787.16
2022-08-02T03:42:38.407Z,100786.59
2022-08-02T03:45:11.216Z,100783.06
2022-08-02T03:47:40.483Z,100784.91
2022-08-02T03:50:12.472Z,100785.47
2022-08-02T03:52:42.505Z,100793.09
2022-08-02T03:55:11.698Z,100795.22
2022-08-02T03:57:40.347Z,100790.28
2022-08-02T04:00:12.999Z,100797.50
2022-08-02T04:02:40.918Z,100796.50
2022-08-02T04:05:09.751Z,100794.66
2022-08-02T04:08:34.178Z,100793.69
2022-08-02T04:10:25.937Z,100791.12
2022-08-02T04:12:54.198Z,100791.84
2022-08-02T04:15:24.517Z,100795.94
2022-08-02T04:17:57.508Z,100801.75
2022-08-02T04:20:29.423Z,100793.94
2022-08-02T04:23:01.480Z,100812.53
2022-08-02T04:25:38.215Z,100812.09
2022-08-02T04:28:17.214Z,100813.53
2022-08-02T04:30:48.432Z,100814.62
2022-08-02T04:33:16.996Z,100817.06
2022-08-02T04:35:47.026Z,100811.09
2022-08-02T04:38:16.922Z,100806.97
2022-08-02T04:40:52.321Z,100807.84
2022-08-02T04:43:23.715Z,100808.38
2022-08-02T04:45:55.038Z,100803.84
2022-08-02T04:48:24.487Z,100809.22
2022-08-02T04:50:53.082Z,100800.16
2022-08-02T04:53:21.071Z,100797.94
2022-08-02T04:55:49.213Z,100807.72
2022-08-02T04:58:39.832Z,100805.41
2022-08-02T05:01:06.767Z,100806.25
2022-08-02T05:03:34.946Z,100813.03
2022-08-02T05:06:03.527Z,100819.41
2022-08-02T05:08:46.848Z,100816.63
2022-08-02T05:11:21.288Z,100816.44
2022-08-02T05:13:58.016Z,100816.56
2022-08-02T05:16:31.281Z,100816.97
2022-08-02T05:19:00.334Z,100819.78
2022-08-02T05:21:28.964Z,100819.87
2022-08-02T05:23:56.920Z,100826.28
2022-08-02T05:26:25.095Z,100825.81
2022-08-02T05:28:55.211Z,100827.66
2022-08-02T05:31:23.122Z,100834.75
2022-08-02T05:33:52.787Z,100838.62
2022-08-02T05:36:21.656Z,100844.38
2022-08-02T05:38:50.810Z,100843.09
2022-08-02T05:41:19.109Z,100839.94
2022-08-02T05:43:47.157Z,100842.94
2022-08-02T05:46:15.358Z,100849.72
2022-08-02T05:48:45.193Z,100847.37
2022-08-02T05:51:23.221Z,100841.38
2022-08-02T05:53:55.336Z,100844.00
2022-08-02T05:56:33.859Z,100851.13
2022-08-02T05:59:06.008Z,100850.37
2022-08-02T06:01:36.947Z,100864.13
2022-08-02T06:04:08.165Z,100865.41
2022-08-02T06:06:38.726Z,100866.56
2022-08-02T06:09:10.803Z,100873.44
2022-08-02T06:12:02.678Z,100862.06
2022-08-02T06:14:33.229Z,100862.19
2022-08-02T06:17:04.603Z,100866.38
2022-08-02T06:19:46.980Z,100866.97
2022-08-02T06:22:42.029Z,100866.69
2022-08-02T06:25:47.840Z,100852.72
2022-08-02T06:28:00.676Z,100859.03
2022-08-02T06:30:29.714Z,100855.19
2022-08-02T06:32:57.661Z,100860.09
2022-08-02T06:35:31.867Z,100857.91
2022-08-02T06:38:03.319Z,100859.94
2022-08-02T06:40:34.192Z,100860.59
2022-08-02T06:43:11.949Z,100860.59
2022-08-02T06:45:40.671Z,100856.69
2022-08-02T06:48:09.801Z,100856.22
2022-08-02T06:50:38.822Z,100861.81
2022-08-02T06:53:08.662Z,100858.59
2022-08-02T06:55:43.354Z,100863.00
2022-08-02T06:58:13.040Z,100854.88
2022-08-02T07:00:41.727Z,100856.75
2022-08-02T07:03:09.775Z,100852.38
2022-08-02T07:05:37.833Z,100852.59
2022-08-02T07:08:08.919Z,100848.50
2022-08-02T07:10:38.124Z,100853.59
2022-08-02T07:13:08.284Z,100848.34
2022-08-02T07:15:36.318Z,100846.63
2022-08-02T07:18:04.410Z,100845.44
2022-08-02T07:20:32.842Z,100845.59
2022-08-02T07:23:00.743Z,100851.69
2022-08-02T07:26:01.639Z,100840.63
2022-08-02T07:28:23.650Z,100841.91
2022-08-02T07:30:52.633Z,100840.13
2022-08-02T07:33:37.781Z,100838.53
2022-08-02T07:36:09.760Z,100833.50
2022-08-02T07:38:45.574Z,100831.34
2022-08-02T07:41:13.674Z,100834.25
2022-08-02T07:43:42.974Z,100832.97
2022-08-02T07:46:11.202Z,100837.13
2022-08-02T07:48:39.145Z,100845.69
2022-08-02T07:51:07.090Z,100832.47
2022-08-02T07:53:50.770Z,100837.56
2022-08-02T07:56:19.623Z,100840.69
2022-08-02T07:58:49.530Z,100833.94
2022-08-02T08:01:18.366Z,100838.81
2022-08-02T08:03:46.809Z,100836.56
2022-08-02T08:06:14.881Z,100836.00
2022-08-02T08:08:44.301Z,100831.22
2022-08-02T08:11:12.477Z,100830.63
2022-08-02T08:13:40.776Z,100835.66
2022-08-02T08:16:10.005Z,100829.19
2022-08-02T08:18:38.149Z,100823.53
2022-08-02T08:21:06.181Z,100823.69
2022-08-02T08:23:35.353Z,100821.19
2022-08-02T08:26:03.794Z,100822.22
2022-08-02T08:28:31.881Z,100820.44
2022-08-02T08:30:59.814Z,100817.88
2022-08-02T08:33:29.492Z,100814.75
2022-08-02T08:35:58.139Z,100813.72
2022-08-02T08:38:26.254Z,100815.78
2022-08-02T08:40:56.966Z,100808.97
2022-08-02T08:43:24.861Z,100818.16
2022-08-02T08:45:55.879Z,100806.91
2022-08-02T08:48:31.283Z,100809.94
2022-08-02T08:51:08.619Z,100806.69
2022-08-02T08:53:43.125Z,100797.50
2022-08-02T08:56:16.180Z,100789.56
2022-08-02T08:58:47.319Z,100783.91
2022-08-02T09:01:16.901Z,100787.06
2022-08-02T09:03:46.010Z,100785.16
2022-08-02T09:06:15.395Z,100785.16
2022-08-02T09:08:43.495Z,100774.50
2022-08-02T09:11:15.066Z,100766.31
2022-08-02T09:13:51.819Z,100772.00
2022-08-02T09:16:32.252Z,100781.06
2022-08-02T09:19:01.857Z,100778.97
2022-08-02T09:21:38.870Z,100776.88
2022-08-02T09:24:17.571Z,100772.84
2022-08-02T09:26:46.311Z,100769.91
2022-08-02T09:29:15.262Z,100768.00
2022-08-02T09:31:49.928Z,100779.34
2022-08-02T09:34:20.051Z,100770.03
2022-08-02T09:36:54.314Z,100763.88
2022-08-02T09:39:26.347Z,100760.72
2022-08-02T09:42:08.259Z,100764.94
2022-08-02T09:44:36.595Z,100759.41
2022-08-02T09:47:16.446Z,100761.03
2022-08-02T09:49:52.260Z,100765.94
2022-08-02T09:52:37.398Z,100764.19
2022-08-02T09:55:13.440Z,100761.22
2022-08-02T09:57:41.458Z,100762.78
2022-08-02T10:00:14.867Z,100762.25
2022-08-02T10:03:09.056Z,100765.06
2022-08-02T10:05:55.598Z,100758.75
2022-08-02T10:08:26.899Z,100764.03
2022-08-02T10:11:00.456Z,100758.44
2022-08-02T10:13:30.931Z,100756.13
2022-08-02T10:15:59.425Z,100753.38
2022-08-02T10:18:42.789Z,100753.25
2022-08-02T10:21:16.944Z,100754.66
2022-08-02T10:23:49.830Z,100750.56
2022-08-02T10:26:19.439Z,100745.66
2022-08-02T10:28:49.502Z,100752.66
2022-08-02T10:31:22.083Z,100744.53
2022-08-02T10:33:52.973Z,100734.12
2022-08-02T10:36:23.671Z,100735.34
2022-08-02T10:38:54.268Z,100731.16
2022-08-02T10:41:41.546Z,100731.78
2022-08-02T10:44:24.363Z,100719.94
2022-08-02T10:46:54.414Z,100714.06
2022-08-02T10:49:39.059Z,100710.16
2022-08-02T10:52:10.034Z,100711.63
2022-08-02T10:54:41.969Z,100708.50
2022-08-02T10:57:22.031Z,100700.69
2022-08-02T10:59:51.373Z,100701.47
2022-08-02T11:02:38.451Z,100698.91
2022-08-02T11:05:09.785Z,100694.72
2022-08-02T11:07:39.809Z,100700.72
2022-08-02T11:10:35.586Z,100698.91
2022-08-02T11:13:07.821Z,100693.09
2022-08-02T11:16:10.611Z,100690.19
2022-08-02T11:19:06.661Z,100685.28
2022-08-02T11:21:35.906Z,100687.31
2022-08-02T11:24:28.004Z,100686.38
2022-08-02T11:26:58.098Z,100683.16
2022-08-02T11:29:38.216Z,100689.28
2022-08-02T11:32:08.010Z,100690.00
2022-08-02T11:34:37.282Z,100696.34
2022-08-02T11:37:06.521Z,100686.75
2022-08-02T11:39:34.398Z,100687.72
2022-08-02T11:42:04.077Z,100688.41
2022-08-02T11:44:41.717Z,100685.84
2022-08-02T11:47:10.066Z,100686.22
2022-08-02T11:49:38.518Z,100679.91
2022-08-02T11:52:11.065Z,100689.03
2022-08-02T11:54:41.398Z,100681.69
2022-08-02T11:57:19.757Z,100678.38
2022-08-02T11:59:50.929Z,100674.69
2022-08-02T12:02:20.456Z,100669.59
2022-08-02T12:04:58.467Z,100665.44
2022-08-02T12:07:31.969Z,100668.59
2022-08-02T12:10:06.398Z,100663.84
2022-08-02T12:12:48.986Z,100660.63
2022-08-02T12:15:30.259Z,100655.00
2022-08-02T12:18:15.991Z,100662.19
2022-08-02T12:20:44.412Z,100661.28
2022-08-02T12:23:12.368Z,100650.03
2022-08-02T12:25:40.549Z,100654.59
2022-08-02T12:28:22.291Z,100645.03
2022-08-02T12:30:52.609Z,100646.03
2022-08-02T12:35:39.044Z,100630.78
2022-08-02T12:38:11.399Z,100630.78
2022-08-02T12:40:39.807Z,100631.25
2022-08-02T12:43:11.211Z,100632.06
2022-08-02T12:45:49.129Z,100634.84
2022-08-02T12:48:19.027Z,100633.19
2022-08-02T12:50:48.618Z,100637.19
2022-08-02T12:53:19.088Z,100640.44
2022-08-02T12:56:00.395Z,100632.69
2022-08-02T12:58:30.797Z,100630.78
2022-08-02T13:01:01.111Z,100629.00
2022-08-02T13:04:09.664Z,100630.44
2022-08-02T13:06:42.060Z,100625.31
2022-08-02T13:09:16.750Z,100626.38
2022-08-02T13:11:45.141Z,100622.41
2022-08-02T13:14:14.179Z,100622.28
2022-08-02T13:16:43.829Z,100619.44
2022-08-02T13:19:13.139Z,100612.78
2022-08-02T13:22:01.011Z,100615.06
2022-08-02T13:24:38.557Z,100611.25
2022-08-02T13:27:09.974Z,100603.44
2022-08-02T13:29:39.043Z,100603.31
2022-08-02T13:32:07.239Z,100595.50
2022-08-02T13:34:35.465Z,100588.00
2022-08-02T13:37:05.582Z,100590.16
2022-08-02T13:39:33.665Z,100583.63
2022-08-02T13:42:01.649Z,100588.63
2022-08-02T13:44:35.818Z,100576.81
2022-08-02T13:47:03.914Z,100565.16
2022-08-02T13:49:38.508Z,100565.91
2022-08-02T13:52:19.733Z,100568.22
2022-08-02T13:54:47.909Z,100565.56
2022-08-02T13:57:15.822Z,100564.69
2022-08-02T13:59:57.800Z,100555.13
2022-08-02T14:02:28.675Z,100551.00
2022-08-02T14:04:57.065Z,100554.69
2022-08-02T14:07:26.307Z,100540.31
2022-08-02T14:09:54.175Z,100543.75
2022-08-02T14:12:22.387Z,100543.88
2022-08-02T14:14:50.573Z,100545.41
2022-08-02T14:17:19.671Z,100540.81
2022-08-02T14:19:47.835Z,100545.53
2022-08-02T14:22:15.783Z,100544.38
2022-08-02T14:24:45.302Z,100545.53
2022-08-02T14:27:13.602Z,100536.84
2022-08-02T14:29:41.539Z,100537.94
2022-08-02T14:32:09.958Z,100537.28
2022-08-02T14:34:38.414Z,100536.13
2022-08-02T14:37:06.366Z,100534.47
2022-08-02T14:39:43.569Z,100529.41
2022-08-02T14:42:23.748Z,100522.28
2022-08-02T14:44:51.651Z,100525.06
2022-08-02T14:47:19.791Z,100524.81
2022-08-02T14:49:50.285Z,100527.03
2022-08-02T14:52:19.759Z,100522.88
2022-08-02T14:54:48.012Z,100527.78
2022-08-02T14:57:16.972Z,100520.06
2022-08-02T14:59:47.208Z,100518.41
2022-08-02T15:02:15.953Z,100515.69
2022-08-02T15:04:44.175Z,100510.47
2022-08-02T15:07:15.258Z,100504.87
2022-08-02T15:09:43.443Z,100508.16
2022-08-02T15:12:12.478Z,100505.13
2022-08-02T15:14:41.107Z,100501.84
2022-08-02T15:17:10.952Z,100498.53
2022-08-02T15:19:58.100Z,100497.97
2022-08-02T15:22:29.386Z,100488.03
2022-08-02T15:24:59.257Z,100488.28
2022-08-02T15:27:27.179Z,100486.44
2022-08-02T15:30:00.090Z,100488.66
2022-08-02T15:32:29.797Z,100482.03
2022-08-02T15:34:57.972Z,100486.72
2022-08-02T15:37:26.012Z,100478.06
2022-08-02T15:39:59.969Z,100488.37
2022-08-02T15:42:30.426Z,100477.00
2022-08-02T15:45:00.618Z,100486.84
2022-08-02T15:47:29.934Z,100480.31
2022-08-02T15:49:58.584Z,100477.53
2022-08-02T15:52:28.615Z,100483.34
2022-08-02T15:55:07.135Z,100479.38
2022-08-02T15:57:36.302Z,100485.06
2022-08-02T16:00:05.988Z,100480.66
2022-08-02T16:02:35.470Z,100483.94
2022-08-02T16:05:03.362Z,100482.00
2022-08-02T16:07:42.330Z,100477.47
2022-08-02T16:10:11.740Z,100478.94
2022-08-02T16:12:39.691Z,100485.47
2022-08-02T16:15:09.425Z,100485.91
2022-08-02T16:17:48.672Z,100487.06
2022-08-02T16:20:23.128Z,100481.59
2022-08-02T16:22:51.075Z,100482.25
2022-08-02T16:25:19.110Z,100485.81
2022-08-02T16:28:06.817Z,100484.22
2022-08-02T16:30:35.380Z,100479.34
2022-08-02T16:33:05.059Z,100477.63
2022-08-02T16:35:34.774Z,100475.62
2022-08-02T16:38:02.840Z,100473.44
2022-08-02T16:40:32.582Z,100464.66
2022-08-02T16:43:00.635Z,100460.53
2022-08-02T16:45:29.372Z,100461.06
2022-08-02T16:48:05.517Z,100455.41
2022-08-02T16:50:35.553Z,100458.94
2022-08-02T16:53:07.143Z,100453.13
2022-08-02T16:55:53.272Z,100449.00
2022-08-02T16:58:21.525Z,100452.28
2022-08-02T17:00:49.464Z,100446.87
2022-08-02T17:03:17.426Z,100440.47
2022-08-02T17:05:56.008Z,100454.56
2022-08-02T17:08:31.629Z,100451.16
2022-08-02T17:11:03.411Z,100452.31
2022-08-02T17:13:34.485Z,100447.44
2022-08-02T17:16:20.645Z,100451.72
2022-08-02T17:18:53.926Z,100447.84
2022-08-02T17:21:23.823Z,100448.16
2022-08-02T17:24:05.580Z,100449.69
2022-08-02T17:26:35.308Z,100450.56
2022-08-02T17:29:15.362Z,100453.53
2022-08-02T17:32:05.224Z,100453.94
2022-08-02T17:34:35.450Z,100450.22
2022-08-02T17:37:06.338Z,100459.25
2022-08-02T17:39:44.209Z,100458.34
2022-08-02T17:42:23.072Z,100465.09
2022-08-02T17:45:06.775Z,100465.03
2022-08-02T17:48:04.580Z,100461.09
2022-08-02T17:50:34.132Z,100459.78
2022-08-02T17:53:03.660Z,100462.56
2022-08-02T17:55:33.149Z,100464.59
2022-08-02T17:58:01.075Z,100465.84
2022-08-02T18:00:34.159Z,100464.28
2022-08-02T18:03:05.446Z,100459.59
2022-08-02T18:05:39.109Z,100466.91
2022-08-02T18:08:10.125Z,100462.94
2022-08-02T18:10:39.288Z,100467.66
2022-08-02T18:13:07.395Z,100469.28
2022-08-02T18:15:36.194Z,100464.81
2022-08-02T18:18:04.170Z,100471.69
2022-08-02T18:20:32.369Z,100469.09
2022-08-02T18:23:00.610Z,100466.84
2022-08-02T18:25:37.221Z,100468.28
2022-08-02T18:28:15.068Z,100467.53
2022-08-02T18:30:43.555Z,100470.03
2022-08-02T18:35:59.982Z,100465.69
2022-08-02T18:38:30.215Z,100477.03
2022-08-02T18:41:02.438Z,100468.47
2022-08-02T18:43:36.398Z,100470.75
2022-08-02T18:46:15.439Z,100469.31
2022-08-02T18:48:46.593Z,100479.34
2022-08-02T18:51:36.666Z,100473.81
2022-08-02T18:54:05.640Z,100483.38
2022-08-02T18:56:34.861Z,100485.97
2022-08-02T18:59:07.758Z,100489.78
2022-08-02T19:01:48.670Z,100494.03
2022-08-02T19:04:26.801Z,100495.75
2022-08-02T19:07:06.982Z,100492.81
2022-08-02T19:09:39.773Z,100493.84
2022-08-02T19:12:11.556Z,100498.25
2022-08-02T19:14:40.190Z,100495.31
2022-08-02T19:17:15.864Z,100504.28
2022-08-02T19:19:56.556Z,100501.47
2022-08-02T19:22:25.328Z,100491.09
2022-08-02T19:25:00.006Z,100492.50
2022-08-02T19:27:34.152Z,100499.09
2022-08-02T19:30:03.429Z,100492.28
2022-08-02T19:32:40.763Z,100497.87
2022-08-02T19:35:29.778Z,100500.69
2022-08-02T19:38:08.550Z,100510.41
2022-08-02T19:40:37.494Z,100507.59
2022-08-02T19:44:26.003Z,100508.06
2022-08-02T19:45:57.223Z,100501.47
2022-08-02T19:48:26.871Z,100508.59
2022-08-02T19:51:00.924Z,100507.22
2022-08-02T19:53:47.757Z,100519.25
2022-08-02T19:56:24.838Z,100518.06
2022-08-02T19:58:57.719Z,100522.72
2022-08-02T20:01:39.410Z,100527.97
2022-08-02T20:04:13.345Z,100530.28
2022-08-02T20:06:45.083Z,100532.63
2022-08-02T20:09:16.596Z,100529.81
2022-08-02T20:11:45.536Z,100529.91
2022-08-02T20:14:15.392Z,100532.22
2022-08-02T20:16:44.245Z,100535.06
2022-08-02T20:19:14.512Z,100528.00
2022-08-02T20:21:52.963Z,100531.13
2022-08-02T20:27:16.768Z,100530.62
2022-08-02T20:29:50.758Z,100525.97
2022-08-02T20:32:23.473Z,100527.75
2022-08-02T20:34:52.810Z,100524.25
2022-08-02T20:37:59.306Z,100525.31
2022-08-02T20:40:16.749Z,100543.13
2022-08-02T20:42:47.819Z,100534.56
2022-08-02T20:45:18.341Z,100532.72
2022-08-02T20:47:49.888Z,100536.50
2022-08-02T20:50:37.002Z,100532.31
2022-08-02T20:53:06.079Z,100528.13
2022-08-02T20:55:35.624Z,100534.56
2022-08-02T20:58:04.817Z,100538.81
2022-08-02T21:00:35.124Z,100532.06
2022-08-02T21:03:04.540Z,100529.88
2022-08-02T21:05:54.318Z,100537.16
2022-08-02T21:08:21.887Z,100532.09
2022-08-02T21:10:52.301Z,100537.38
2022-08-02T21:13:23.774Z,100536.53
2022-08-02T21:15:55.411Z,100536.00
2022-08-02T21:18:33.892Z,100532.66
2022-08-02T21:21:08.783Z,100541.50
2022-08-02T21:23:37.352Z,100533.03
2022-08-02T21:26:06.504Z,100539.81
2022-08-02T21:28:44.954Z,100533.22
2022-08-02T21:31:15.878Z,100536.09
2022-08-02T21:33:57.123Z,100533.75
2022-08-02T21:36:30.652Z,100537.12
2022-08-02T21:39:04.458Z,100539.84
2022-08-02T21:41:39.720Z,100540.69
2022-08-02T21:44:15.832Z,100538.16
2022-08-02T21:46:46.663Z,100526.97
2022-08-02T21:49:18.377Z,100535.75
2022-08-02T21:51:49.252Z,100532.22
2022-08-02T21:54:20.336Z,100529.66
2022-08-02T21:59:39.150Z,100540.31
2022-08-02T22:02:14.733Z,100548.25
2022-08-02T22:04:47.506Z,100545.22
2022-08-02T22:07:23.836Z,100541.47
2022-08-02T22:09:53.067Z,100545.97
2022-08-02T22:12:25.791Z,100541.75
2022-08-02T22:14:56.421Z,100547.66
2022-08-02T22:17:51.424Z,100542.75
2022-08-02T22:20:20.175Z,100546.94
2022-08-02T22:22:50.481Z,100552.34
2022-08-02T22:25:36.022Z,100557.41
2022-08-02T22:28:37.218Z,100559.88
2022-08-02T22:31:04.338Z,100555.84
2022-08-02T22:34:00.545Z,100559.00
2022-08-02T22:36:30.969Z,100565.91
2022-08-02T22:38:59.774Z,100565.87
2022-08-02T22:42:01.374Z,100572.91
2022-08-02T22:44:16.869Z,100578.81
2022-08-02T22:46:46.995Z,100578.72
2022-08-02T22:49:38.189Z,100579.56
2022-08-02T22:52:08.055Z,100578.22
2022-08-02T22:54:36.385Z,100589.31
2022-08-02T22:57:06.563Z,100579.69
2022-08-02T22:59:00.260Z,100471.09
2022-08-02T22:59:06.569Z,100534.97
2022-08-02T22:59:12.689Z,100535.09
2022-08-02T22:59:40.617Z,100579.00
2022-08-02T23:02:09.145Z,100583.56
2022-08-02T23:04:39.887Z,100584.56
2022-08-02T23:07:08.062Z,100580.00
2022-08-02T23:09:35.965Z,100578.16
2022-08-02T23:12:04.334Z,100576.31
2022-08-02T23:14:32.677Z,100577.16
2022-08-02T23:17:18.187Z,100570.56
2022-08-02T23:19:53.450Z,100573.13
2022-08-02T23:22:29.126Z,100575.47
2022-08-02T23:24:58.709Z,100566.00
2022-08-02T23:27:26.775Z,100577.25
2022-08-02T23:29:55.042Z,100568.47
2022-08-02T23:32:25.479Z,100576.34
2022-08-02T23:34:55.605Z,100571.97
2022-08-02T23:37:24.297Z,100572.97
2022-08-02T23:39:52.799Z,100577.00
2022-08-02T23:42:20.895Z,100564.12
2022-08-02T23:44:49.068Z,100556.34
2022-08-02T23:47:17.746Z,100555.66
2022-08-02T23:49:45.784Z,100563.22
2022-08-02T23:52:15.568Z,100560.00
2022-08-02T23:54:43.602Z,100565.69
2022-08-02T23:57:20.997Z,100567.00
2022-08-02T23:59:51.028Z,100558.91
